createdAt,value
2023-03-06T00:01:20.434Z,-2.42
2023-03-06T00:03:46.918Z,-2.46
2023-03-06T00:06:13.407Z,-2.46
2023-03-06T00:08:42.258Z,-2.47
2023-03-06T00:11:14.223Z,-2.48
2023-03-06T00:13:45.630Z,-2.51
2023-03-06T00:16:14.701Z,-2.55
2023-03-06T00:18:43.368Z,-2.59
2023-03-06T00:21:14.744Z,-2.61
2023-03-06T00:23:41.470Z,-2.64
2023-03-06T00:26:10.899Z,-2.68
2023-03-06T00:28:41.628Z,-2.71
2023-03-06T00:31:12.918Z,-2.73
2023-03-06T00:33:42.871Z,-2.75
2023-03-06T00:36:11.966Z,-2.77
2023-03-06T00:38:39.618Z,-2.80
2023-03-06T00:41:10.268Z,-2.83
2023-03-06T00:43:37.285Z,-2.83
2023-03-06T00:46:05.095Z,-2.83
2023-03-06T00:48:35.450Z,-2.84
2023-03-06T00:51:04.508Z,-2.84
2023-03-06T00:53:35.561Z,-2.87
2023-03-06T00:56:02.005Z,-2.89
2023-03-06T00:58:33.066Z,-2.89
2023-03-06T01:01:02.612Z,-2.89
2023-03-06T01:03:31.551Z,-2.91
2023-03-06T01:06:02.939Z,-2.91
2023-03-06T01:08:31.775Z,-2.91
2023-03-06T02:13:55.317Z,-3.24
2023-03-06T02:16:26.155Z,-3.24
2023-03-06T02:18:52.860Z,-3.27
2023-03-06T02:21:26.644Z,-3.28
2023-03-06T02:24:23.620Z,-3.27
2023-03-06T02:26:54.081Z,-3.28
2023-03-06T02:29:25.398Z,-3.30
2023-03-06T02:31:56.066Z,-3.35
2023-03-06T02:34:27.236Z,-3.41
2023-03-06T02:37:00.158Z,-3.49
2023-03-06T02:39:31.782Z,-3.57
2023-03-06T02:42:00.492Z,-3.66
2023-03-06T02:44:32.281Z,-3.72
2023-03-06T02:47:01.382Z,-3.79
2023-03-06T02:49:32.971Z,-3.83
2023-03-06T02:52:02.039Z,-3.86
2023-03-06T02:54:31.062Z,-3.89
2023-03-06T02:57:00.367Z,-3.91
2023-03-06T02:59:27.158Z,-3.93
2023-03-06T03:02:01.953Z,-3.95
2023-03-06T03:04:28.422Z,-3.99
2023-03-06T03:06:55.701Z,-4.01
2023-03-06T03:09:22.436Z,-4.04
2023-03-06T03:11:48.858Z,-4.06
2023-03-06T03:14:20.316Z,-4.08
2023-03-06T03:16:50.115Z,-4.06
2023-03-06T03:19:17.209Z,-4.06
2023-03-06T03:21:43.717Z,-4.06
2023-03-06T03:24:13.072Z,-4.08
2023-03-06T03:26:44.321Z,-4.12
2023-03-06T03:29:13.838Z,-4.16
2023-03-06T03:31:40.492Z,-4.18
2023-03-06T03:34:11.905Z,-4.21
2023-03-06T03:36:47.882Z,-4.21
2023-03-06T03:39:14.850Z,-4.21
2023-03-06T03:41:42.103Z,-4.19
2023-03-06T03:44:09.444Z,-4.20
2023-03-06T03:46:36.381Z,-4.21
2023-03-06T03:49:03.453Z,-4.21
2023-03-06T03:51:31.420Z,-4.20
2023-03-06T03:53:58.433Z,-4.21
2023-03-06T03:56:26.908Z,-4.20
2023-03-06T03:59:00.858Z,-4.19
2023-03-06T04:01:34.112Z,-4.20
2023-03-06T04:04:00.780Z,-4.21
2023-03-06T04:06:27.547Z,-4.23
2023-03-06T04:08:57.210Z,-4.24
2023-03-06T04:11:25.878Z,-4.23
2023-03-06T04:13:56.034Z,-4.24
2023-03-06T04:16:22.519Z,-4.24
2023-03-06T04:18:49.911Z,-4.24
2023-03-06T04:21:16.632Z,-4.22
2023-03-06T04:23:48.041Z,-4.19
2023-03-06T04:26:14.866Z,-4.15
2023-03-06T04:28:43.933Z,-4.12
2023-03-06T04:31:16.834Z,-4.08
2023-03-06T04:33:43.545Z,-4.07
2023-03-06T04:36:29.305Z,-4.07
2023-03-06T04:38:59.333Z,-4.10
2023-03-06T04:41:26.247Z,-4.08
2023-03-06T04:43:57.320Z,-4.06
2023-03-06T04:46:23.855Z,-4.06
2023-03-06T04:48:55.115Z,-4.04
2023-03-06T04:51:21.798Z,-4.00
2023-03-06T04:53:51.035Z,-3.95
2023-03-06T04:56:17.881Z,-3.91
2023-03-06T04:58:49.362Z,-3.85
2023-03-06T05:01:18.321Z,-3.77
2023-03-06T05:03:49.125Z,-3.72
2023-03-06T05:06:18.380Z,-3.71
2023-03-06T05:08:47.579Z,-3.71
2023-03-06T05:11:19.237Z,-3.72
2023-03-06T05:13:53.326Z,-3.73
2023-03-06T05:16:25.774Z,-3.75
2023-03-06T05:18:57.778Z,-3.77
2023-03-06T05:21:32.048Z,-3.75
2023-03-06T05:24:00.538Z,-3.74
2023-03-06T05:26:34.476Z,-3.73
2023-03-06T05:29:04.109Z,-3.71
2023-03-06T05:31:32.969Z,-3.70
2023-03-06T05:34:04.163Z,-3.67
2023-03-06T05:36:30.640Z,-3.66
2023-03-06T05:39:02.294Z,-3.63
2023-03-06T05:41:31.637Z,-3.60
2023-03-06T05:43:58.271Z,-3.57
2023-03-06T05:46:27.609Z,-3.53
2023-03-06T05:48:54.744Z,-3.48
2023-03-06T05:51:24.070Z,-3.44
2023-03-06T05:54:00.957Z,-3.41
2023-03-06T05:56:28.113Z,-3.38
2023-03-06T05:58:57.013Z,-3.35
2023-03-06T06:01:27.793Z,-3.32
2023-03-06T06:03:54.937Z,-3.26
2023-03-06T06:06:24.086Z,-3.21
2023-03-06T06:08:50.824Z,-3.16
2023-03-06T06:11:18.014Z,-3.11
2023-03-06T06:13:48.780Z,-3.05
2023-03-06T06:16:19.466Z,-2.99
2023-03-06T06:18:53.213Z,-2.93
2023-03-06T06:21:19.803Z,-2.87
2023-03-06T06:23:49.251Z,-2.80
2023-03-06T06:26:15.725Z,-2.72
2023-03-06T06:28:44.649Z,-2.64
2023-03-06T06:31:14.335Z,-2.58
2023-03-06T06:33:41.353Z,-2.50
2023-03-06T06:36:21.380Z,-2.42
2023-03-06T06:38:50.585Z,-2.35
2023-03-06T06:44:13.775Z,-2.21
2023-03-06T06:49:34.621Z,-2.09
2023-03-06T06:52:03.632Z,-2.02
2023-03-06T06:54:32.442Z,-1.95
2023-03-06T06:57:03.977Z,-1.90
2023-03-06T06:59:32.881Z,-1.86
2023-03-06T07:01:59.455Z,-1.82
2023-03-06T07:04:28.412Z,-1.77
2023-03-06T07:06:58.616Z,-1.69
2023-03-06T07:09:25.104Z,-1.62
2023-03-06T07:11:54.002Z,-1.58
2023-03-06T07:14:23.803Z,-1.55
2023-03-06T07:16:52.538Z,-1.53
2023-03-06T07:19:21.329Z,-1.50
2023-03-06T07:21:47.984Z,-1.47
2023-03-06T07:24:19.197Z,-1.44
2023-03-06T07:26:48.095Z,-1.42
2023-03-06T07:29:15.087Z,-1.40
2023-03-06T07:31:44.222Z,-1.39
2023-03-06T07:34:14.565Z,-1.37
2023-03-06T07:36:41.219Z,-1.36
2023-03-06T07:39:08.066Z,-1.33
2023-03-06T07:41:36.684Z,-1.31
2023-03-06T07:44:03.753Z,-1.29
2023-03-06T07:46:35.599Z,-1.29
2023-03-06T07:49:02.284Z,-1.28
2023-03-06T07:51:33.607Z,-1.26
2023-03-06T07:54:02.496Z,-1.24
2023-03-06T07:56:34.301Z,-1.25
2023-03-06T07:59:03.745Z,-1.24
2023-03-06T08:01:32.491Z,-1.24
2023-03-06T08:04:00.509Z,-1.24
2023-03-06T08:06:29.405Z,-1.23
2023-03-06T08:09:00.903Z,-1.22
2023-03-06T08:11:29.668Z,-1.22
2023-03-06T08:13:59.244Z,-1.18
2023-03-06T08:16:33.119Z,-1.16
2023-03-06T08:19:02.054Z,-1.13
2023-03-06T08:21:28.525Z,-1.09
2023-03-06T08:23:55.653Z,-1.06
2023-03-06T08:26:27.769Z,-1.04
2023-03-06T08:29:01.305Z,-1.03
2023-03-06T08:31:29.576Z,-0.99
2023-03-06T08:33:59.349Z,-0.94
2023-03-06T08:36:30.747Z,-0.95
2023-03-06T08:38:59.532Z,-0.94
2023-03-06T08:41:31.563Z,-0.95
2023-03-06T08:43:58.352Z,-0.94
2023-03-06T08:46:30.431Z,-0.93
2023-03-06T08:49:01.733Z,-0.91
2023-03-06T08:51:35.338Z,-0.89
2023-03-06T08:54:04.274Z,-0.90
2023-03-06T08:56:33.005Z,-0.89
2023-03-06T08:59:04.498Z,-0.88
2023-03-06T09:01:35.995Z,-0.87
2023-03-06T09:04:06.352Z,-0.85
2023-03-06T09:06:38.030Z,-0.87
2023-03-06T09:09:05.069Z,-0.86
2023-03-06T09:11:34.112Z,-0.85
2023-03-06T09:14:00.625Z,-0.85
2023-03-06T09:16:32.023Z,-0.84
2023-03-06T09:19:01.176Z,-0.82
2023-03-06T09:21:27.949Z,-0.80
2023-03-06T09:24:01.036Z,-0.79
2023-03-06T09:26:39.729Z,-0.77
2023-03-06T09:29:12.435Z,-0.76
2023-03-06T09:31:41.375Z,-0.76
2023-03-06T09:34:08.034Z,-0.75
2023-03-06T09:36:53.365Z,-0.73
2023-03-06T09:39:22.228Z,-0.70
2023-03-06T09:41:51.582Z,-0.67
2023-03-06T09:44:25.409Z,-0.63
2023-03-06T09:47:28.400Z,-0.58
2023-03-06T09:50:16.265Z,-0.54
2023-03-06T09:53:01.098Z,-0.50
2023-03-06T09:55:31.741Z,-0.47
2023-03-06T09:58:00.722Z,-0.41
2023-03-06T10:00:36.128Z,-0.37
2023-03-06T10:03:24.467Z,-0.29
2023-03-06T10:06:02.619Z,-0.23
2023-03-06T10:08:37.425Z,-0.17
2023-03-06T10:11:10.473Z,-0.10
2023-03-06T10:13:46.349Z,-0.04
2023-03-06T10:16:31.842Z,0.02
2023-03-06T10:19:06.661Z,0.08
2023-03-06T10:21:42.801Z,0.13
2023-03-06T10:24:28.156Z,0.17
2023-03-06T10:27:02.760Z,0.23
2023-03-06T10:29:47.630Z,0.26
2023-03-06T10:32:48.925Z,0.29
2023-03-06T10:35:24.891Z,0.31
2023-03-06T10:38:18.679Z,0.33
2023-03-06T10:41:11.224Z,0.37
2023-03-06T10:43:59.159Z,0.39
2023-03-06T10:46:36.197Z,0.40
2023-03-06T10:49:35.005Z,0.43
2023-03-06T10:52:08.940Z,0.47
2023-03-06T10:54:38.872Z,0.49
2023-03-06T10:57:28.898Z,0.53
2023-03-06T11:00:04.601Z,0.58
2023-03-06T11:02:37.891Z,0.61
2023-03-06T11:05:22.805Z,0.65
2023-03-06T11:08:00.262Z,0.69
2023-03-06T11:10:31.227Z,0.72
2023-03-06T11:13:21.725Z,0.75
2023-03-06T11:16:06.913Z,0.77
2023-03-06T11:18:42.183Z,0.84
2023-03-06T11:21:32.967Z,0.86
2023-03-06T11:24:23.997Z,0.86
2023-03-06T11:26:59.005Z,0.87
2023-03-06T11:29:38.779Z,0.87
2023-03-06T11:32:15.476Z,0.89
2023-03-06T11:34:56.977Z,0.89
2023-03-06T11:37:42.178Z,0.90
2023-03-06T11:40:11.527Z,0.92
2023-03-06T11:42:55.640Z,0.93
2023-03-06T11:45:28.072Z,0.96
2023-03-06T11:48:01.032Z,0.97
2023-03-06T11:50:45.028Z,1.05
2023-03-06T11:53:15.681Z,1.09
2023-03-06T11:55:50.232Z,1.11
2023-03-06T11:58:44.095Z,1.12
2023-03-06T12:01:26.416Z,1.14
2023-03-06T12:04:36.213Z,1.18
2023-03-06T12:07:28.312Z,1.23
2023-03-06T12:10:31.763Z,1.27
2023-03-06T12:13:34.717Z,1.31
2023-03-06T12:16:18.114Z,1.33
2023-03-06T12:19:03.328Z,1.37
2023-03-06T12:21:44.920Z,1.38
2023-03-06T12:24:30.778Z,1.40
2023-03-06T12:27:16.433Z,1.42
2023-03-06T12:30:09.453Z,1.44
2023-03-06T12:32:41.256Z,1.50
2023-03-06T12:35:29.003Z,1.52
2023-03-06T12:38:06.073Z,1.58
2023-03-06T12:40:46.695Z,1.61
2023-03-06T12:43:22.917Z,1.64
2023-03-06T12:45:57.801Z,1.65
2023-03-06T12:48:30.286Z,1.65
2023-03-06T12:50:57.157Z,1.68
2023-03-06T12:53:31.761Z,1.69
2023-03-06T12:56:01.890Z,1.73
2023-03-06T12:58:33.009Z,1.76
2023-03-06T13:01:05.452Z,1.80
2023-03-06T13:03:53.604Z,1.83
2023-03-06T13:06:49.889Z,1.85
2023-03-06T13:26:25.034Z,1.44
2023-03-06T13:28:58.210Z,1.44
2023-03-06T13:31:28.521Z,1.43
2023-03-06T13:34:41.602Z,1.42
2023-03-06T13:37:23.281Z,1.41
2023-03-06T13:39:56.704Z,1.43
2023-03-06T13:42:58.093Z,1.44
2023-03-06T13:45:43.159Z,1.46
2023-03-06T13:48:43.106Z,1.46
2023-03-06T13:51:27.088Z,1.46
2023-03-06T13:54:10.152Z,1.46
2023-03-06T13:57:16.630Z,1.44
2023-03-06T14:00:15.112Z,1.45
2023-03-06T14:03:08.840Z,1.50
2023-03-06T14:05:48.831Z,1.54
2023-03-06T14:08:19.325Z,1.57
2023-03-06T14:10:57.836Z,1.59
2023-03-06T14:13:41.871Z,1.61
2023-03-06T14:16:23.273Z,1.64
2023-03-06T14:18:55.972Z,1.66
2023-03-06T14:21:31.926Z,1.69
2023-03-06T14:24:02.896Z,1.72
2023-03-06T14:26:41.676Z,1.79
2023-03-06T14:29:31.181Z,1.81
2023-03-06T14:32:12.118Z,1.83
2023-03-06T14:34:46.392Z,1.84
2023-03-06T14:37:21.686Z,1.86
2023-03-06T14:39:52.396Z,1.88
2023-03-06T14:42:26.882Z,1.89
2023-03-06T14:45:17.590Z,1.90
2023-03-06T14:47:52.779Z,1.92
2023-03-06T14:50:29.462Z,1.94
2023-03-06T14:53:16.837Z,1.96
2023-03-06T14:55:50.524Z,1.98
2023-03-06T14:58:26.378Z,1.97
2023-03-06T15:01:02.819Z,1.97
2023-03-06T15:03:52.476Z,1.96
2023-03-06T15:06:27.268Z,1.96
2023-03-06T15:09:07.593Z,1.97
2023-03-06T15:11:58.834Z,1.96
2023-03-06T15:14:40.981Z,1.97
2023-03-06T15:17:18.034Z,1.96
2023-03-06T15:19:48.757Z,1.96
2023-03-06T15:22:33.665Z,1.93
2023-03-06T15:25:15.932Z,1.94
2023-03-06T15:28:28.336Z,1.94
2023-03-06T15:31:03.681Z,1.93
2023-03-06T15:33:35.927Z,1.93
2023-03-06T15:36:06.234Z,1.92
2023-03-06T15:38:42.045Z,1.93
2023-03-06T15:41:39.749Z,1.93
2023-03-06T15:44:14.932Z,1.91
2023-03-06T15:46:42.974Z,1.87
2023-03-06T15:49:14.773Z,1.83
2023-03-06T15:51:42.901Z,1.78
2023-03-06T15:54:12.635Z,1.84
2023-03-06T15:56:47.922Z,1.81
2023-03-06T15:59:21.879Z,1.76
2023-03-06T16:01:50.890Z,1.71
2023-03-06T16:04:19.882Z,1.69
2023-03-06T16:06:50.404Z,1.67
2023-03-06T16:09:20.709Z,1.64
2023-03-06T16:11:52.266Z,1.59
2023-03-06T16:14:25.506Z,1.53
2023-03-06T16:16:54.341Z,1.50
2023-03-06T16:19:26.748Z,1.44
2023-03-06T16:21:59.157Z,1.37
2023-03-06T16:24:29.657Z,1.35
2023-03-06T16:27:00.544Z,1.33
2023-03-06T16:29:29.867Z,1.32
2023-03-06T16:32:01.938Z,1.33
2023-03-06T16:34:30.450Z,1.31
2023-03-06T16:37:01.139Z,1.26
2023-03-06T16:39:31.607Z,1.24
2023-03-06T16:42:02.106Z,1.23
2023-03-06T16:44:30.271Z,1.20
2023-03-06T16:47:04.505Z,1.15
2023-03-06T16:49:42.338Z,1.16
2023-03-06T16:52:13.341Z,1.14
2023-03-06T16:54:42.835Z,1.10
2023-03-06T16:57:15.263Z,1.08
2023-03-06T16:59:48.768Z,1.07
2023-03-06T17:02:17.110Z,1.07
2023-03-06T17:04:45.450Z,1.03
2023-03-06T17:07:15.772Z,1.03
2023-03-06T17:09:46.531Z,1.02
2023-03-06T17:12:17.432Z,1.03
2023-03-06T17:14:48.991Z,1.05
2023-03-06T17:17:17.681Z,1.05
2023-03-06T17:19:52.343Z,1.06
2023-03-06T17:22:23.486Z,1.05
2023-03-06T17:24:53.621Z,1.04
2023-03-06T17:27:23.881Z,1.06
2023-03-06T17:29:51.946Z,1.08
2023-03-06T17:32:20.179Z,1.11
2023-03-06T17:34:50.988Z,1.13
2023-03-06T17:37:24.182Z,1.14
2023-03-06T17:39:54.613Z,1.14
2023-03-06T17:42:25.334Z,1.14
2023-03-06T17:44:53.403Z,1.15
2023-03-06T17:47:26.396Z,1.16
2023-03-06T17:49:54.656Z,1.18
2023-03-06T17:52:22.824Z,1.18
2023-03-06T17:54:50.805Z,1.18
2023-03-06T17:57:19.128Z,1.19
2023-03-06T17:59:54.388Z,1.19
2023-03-06T18:02:24.817Z,1.20
2023-03-06T18:04:55.845Z,1.21
2023-03-06T18:07:26.879Z,1.21
2023-03-06T18:09:54.813Z,1.21
2023-03-06T18:12:25.210Z,1.25
2023-03-06T18:14:53.365Z,1.29
2023-03-06T18:17:23.593Z,1.30
2023-03-06T18:19:52.071Z,1.30
2023-03-06T18:22:22.681Z,1.30
2023-03-06T18:24:53.352Z,1.29
2023-03-06T18:27:21.873Z,1.28
2023-03-06T18:29:52.681Z,1.29
2023-03-06T18:32:26.553Z,1.30
2023-03-06T18:34:55.729Z,1.30
2023-03-06T18:37:26.566Z,1.31
2023-03-06T18:39:57.064Z,1.32
2023-03-06T18:42:27.748Z,1.34
2023-03-06T18:45:00.335Z,1.35
2023-03-06T18:47:28.609Z,1.35
2023-03-06T18:49:59.459Z,1.36
2023-03-06T18:52:29.794Z,1.37
2023-03-06T18:55:02.905Z,1.37
2023-03-06T18:57:31.118Z,1.38
2023-03-06T18:59:59.231Z,1.37
2023-03-06T19:02:29.957Z,1.37
2023-03-06T19:05:03.420Z,1.36
2023-03-06T19:07:31.713Z,1.37
2023-03-06T19:10:02.085Z,1.36
2023-03-06T19:12:35.458Z,1.36
2023-03-06T19:15:08.377Z,1.36
2023-03-06T19:17:38.634Z,1.35
2023-03-06T19:20:11.660Z,1.33
2023-03-06T19:22:41.638Z,1.31
2023-03-06T19:25:12.228Z,1.29
2023-03-06T19:27:44.927Z,1.26
2023-03-06T19:30:15.552Z,1.24
2023-03-06T19:32:49.354Z,1.22
2023-03-06T19:35:20.206Z,1.22
2023-03-06T19:37:50.439Z,1.21
2023-03-06T19:40:18.734Z,1.21
2023-03-06T19:42:46.808Z,1.21
2023-03-06T19:45:17.082Z,1.23
2023-03-06T19:47:47.345Z,1.23
2023-03-06T19:50:17.486Z,1.22
2023-03-06T19:52:48.294Z,1.22
2023-03-06T19:55:16.137Z,1.21
2023-03-06T19:57:46.381Z,1.20
2023-03-06T20:00:17.799Z,1.19
2023-03-06T20:02:46.373Z,1.19
2023-03-06T20:05:21.977Z,1.18
2023-03-06T20:07:50.294Z,1.19
2023-03-06T20:10:18.291Z,1.15
2023-03-06T20:12:48.675Z,1.13
2023-03-06T20:15:18.982Z,1.10
2023-03-06T20:17:51.611Z,1.07
2023-03-06T20:20:19.652Z,1.10
2023-03-06T20:22:49.694Z,1.29
2023-03-06T20:25:20.466Z,1.19
2023-03-06T20:27:53.704Z,1.15
2023-03-06T20:30:24.333Z,1.14
2023-03-06T20:32:55.957Z,1.14
2023-03-06T20:35:30.910Z,1.11
2023-03-06T20:37:59.807Z,1.10
2023-03-06T20:40:27.961Z,1.07
2023-03-06T20:43:01.277Z,1.06
2023-03-06T20:45:32.918Z,1.02
2023-03-06T20:48:03.219Z,1.00
2023-03-06T20:50:31.168Z,0.97
2023-03-06T20:53:01.316Z,0.95
2023-03-06T20:55:31.470Z,0.95
2023-03-06T20:58:01.852Z,0.94
2023-03-06T21:00:32.629Z,0.92
2023-03-06T21:03:03.340Z,0.88
2023-03-06T21:05:33.991Z,0.85
2023-03-06T21:08:04.880Z,0.81
2023-03-06T21:10:33.310Z,0.77
2023-03-06T21:13:01.631Z,0.77
2023-03-06T21:15:32.216Z,0.76
2023-03-06T21:18:01.968Z,0.74
2023-03-06T21:20:30.491Z,0.73
2023-03-06T21:22:58.635Z,0.76
2023-03-06T21:25:30.004Z,0.73
2023-03-06T21:27:59.174Z,0.72
2023-03-06T21:30:28.299Z,0.69
2023-03-06T21:32:58.658Z,0.66
2023-03-06T21:35:26.825Z,0.61
2023-03-06T21:37:54.652Z,0.54
2023-03-06T21:40:25.134Z,0.53
2023-03-06T21:42:53.506Z,0.48
2023-03-06T21:45:21.391Z,0.45
2023-03-06T21:47:52.002Z,0.46
2023-03-06T21:50:22.193Z,0.44
2023-03-06T21:52:53.788Z,0.44
2023-03-06T21:55:21.962Z,0.39
2023-03-06T21:57:53.498Z,0.34
2023-03-06T22:00:23.960Z,0.30
2023-03-06T22:02:55.157Z,0.25
2023-03-06T22:05:24.692Z,0.26
2023-03-06T22:07:52.627Z,0.27
2023-03-06T22:10:22.783Z,0.29
2023-03-06T22:12:50.940Z,0.29
2023-03-06T22:15:20.447Z,0.31
2023-03-06T22:17:50.342Z,0.25
2023-03-06T22:20:18.818Z,0.24
2023-03-06T22:22:49.418Z,0.22
2023-03-06T22:25:17.516Z,0.20
2023-03-06T22:27:45.967Z,0.19
2023-03-06T22:30:14.107Z,0.14
2023-03-06T22:32:42.615Z,0.15
2023-03-06T22:35:10.622Z,0.13
2023-03-06T22:37:38.799Z,0.12
2023-03-06T22:40:07.165Z,0.12
2023-03-06T22:42:35.324Z,0.11
2023-03-06T22:45:03.580Z,0.08
2023-03-06T22:47:31.389Z,0.08
2023-03-06T22:49:59.450Z,0.07
2023-03-06T22:52:27.388Z,0.08
2023-03-06T22:54:57.548Z,0.10
2023-03-06T22:57:25.846Z,0.12
2023-03-06T22:59:53.927Z,0.16
2023-03-06T23:02:21.800Z,0.17
2023-03-06T23:04:53.301Z,0.17
2023-03-06T23:07:23.981Z,0.16
2023-03-06T23:10:03.889Z,0.14
2023-03-06T23:12:53.349Z,0.15
2023-03-06T23:15:40.157Z,0.18
2023-03-06T23:18:28.409Z,0.19
2023-03-06T23:21:17.590Z,0.19
2023-03-06T23:24:06.968Z,0.19
2023-03-06T23:26:35.436Z,0.20
2023-03-06T23:29:04.351Z,0.19
2023-03-06T23:31:32.541Z,0.20
2023-03-06T23:34:05.149Z,0.19
2023-03-06T23:36:33.163Z,0.17
2023-03-06T23:39:03.437Z,0.18
2023-03-06T23:41:33.695Z,0.16
2023-03-06T23:44:04.252Z,0.12
2023-03-06T23:46:34.494Z,0.11
2023-03-06T23:49:03.158Z,0.07
2023-03-06T23:51:33.815Z,0.04
2023-03-06T23:54:03.763Z,0.03
2023-03-06T23:56:31.743Z,0.01
2023-03-06T23:59:01.844Z,-0.02
